sensor_id;sensor_type;location;lat;lon;timestamp;noise_LAeq;noise_LA_min;noise_LA_max;noise_LA01;noise_LA95
37223;Laerm;28026;48.562;14.440;2023-12-22T00:00:10;47.69;35.94;76.45;;
37223;Laerm;28026;48.562;14.440;2023-12-22T00:02:41;44.43;34.69;74.84;;
37223;Laerm;28026;48.562;14.440;2023-12-22T00:05:12;55.84;33.90;83.58;;
37223;Laerm;28026;48.562;14.440;2023-12-22T00:07:43;47.79;35.66;74.47;;
37223;Laerm;28026;48.562;14.440;2023-12-22T00:10:14;40.32;34.69;61.12;;
37223;Laerm;28026;48.562;14.440;2023-12-22T00:12:45;46.45;36.45;74.84;;
37223;Laerm;28026;48.562;14.440;2023-12-22T00:15:16;41.72;35.94;66.00;;
37223;Laerm;28026;48.562;14.440;2023-12-22T00:17:47;48.37;35.36;74.38;;
37223;Laerm;28026;48.562;14.440;2023-12-22T00:20:18;56.88;34.31;87.27;;
37223;Laerm;28026;48.562;14.440;2023-12-22T00:22:49;49.60;36.20;74.61;;
37223;Laerm;28026;48.562;14.440;2023-12-22T00:25:20;56.98;34.69;86.60;;
37223;Laerm;28026;48.562;14.440;2023-12-22T00:27:51;58.17;35.94;87.07;;
37223;Laerm;28026;48.562;14.440;2023-12-22T00:30:22;53.07;35.94;81.02;;
37223;Laerm;28026;48.562;14.440;2023-12-22T00:32:55;61.21;35.66;88.30;;
37223;Laerm;28026;48.562;14.440;2023-12-22T00:35:25;61.61;37.12;92.25;;
37223;Laerm;28026;48.562;14.440;2023-12-22T00:37:56;63.43;36.91;89.95;;
37223;Laerm;28026;48.562;14.440;2023-12-22T00:40:27;62.48;38.37;89.20;;
37223;Laerm;28026;48.562;14.440;2023-12-22T00:42:58;69.42;39.81;96.20;;
37223;Laerm;28026;48.562;14.440;2023-12-22T00:45:29;60.87;38.21;90.55;;
37223;Laerm;28026;48.562;14.440;2023-12-22T00:48:00;62.28;38.37;85.66;;
37223;Laerm;28026;48.562;14.440;2023-12-22T00:50:31;59.80;36.45;88.19;;
37223;Laerm;28026;48.562;14.440;2023-12-22T00:53:02;62.64;37.52;87.91;;
37223;Laerm;28026;48.562;14.440;2023-12-22T00:55:32;54.51;35.36;80.45;;
37223;Laerm;28026;48.562;14.440;2023-12-22T00:58:03;52.47;34.69;79.84;;
37223;Laerm;28026;48.562;14.440;2023-12-22T01:00:34;50.36;34.69;76.58;;
37223;Laerm;28026;48.562;14.440;2023-12-22T01:03:05;61.01;35.36;90.58;;
37223;Laerm;28026;48.562;14.440;2023-12-22T01:05:36;46.64;34.69;71.54;;
37223;Laerm;28026;48.562;14.440;2023-12-22T01:08:07;58.70;35.94;85.84;;
37223;Laerm;28026;48.562;14.440;2023-12-22T01:10:37;58.91;35.66;85.30;;
37223;Laerm;28026;48.562;14.440;2023-12-22T01:13:08;49.14;33.90;77.59;;
37223;Laerm;28026;48.562;14.440;2023-12-22T01:15:40;50.37;34.31;77.37;;
37223;Laerm;28026;48.562;14.440;2023-12-22T01:18:11;55.49;33.90;81.54;;
37223;Laerm;28026;48.562;14.440;2023-12-22T01:20:42;58.58;35.66;83.66;;
37223;Laerm;28026;48.562;14.440;2023-12-22T01:23:13;56.63;35.36;83.41;;
37223;Laerm;28026;48.562;14.440;2023-12-22T01:25:44;58.93;35.04;82.84;;
37223;Laerm;28026;48.562;14.440;2023-12-22T01:28:15;61.30;35.36;86.33;;
37223;Laerm;28026;48.562;14.440;2023-12-22T01:30:46;56.18;36.20;82.57;;
37223;Laerm;28026;48.562;14.440;2023-12-22T01:33:17;47.49;35.36;73.76;;
37223;Laerm;28026;48.562;14.440;2023-12-22T01:35:47;57.30;36.69;80.81;;
37223;Laerm;28026;48.562;14.440;2023-12-22T01:38:19;60.66;37.32;89.33;;
37223;Laerm;28026;48.562;14.440;2023-12-22T01:40:50;50.11;35.94;76.02;;
37223;Laerm;28026;48.562;14.440;2023-12-22T01:43:20;60.55;36.91;84.90;;
37223;Laerm;28026;48.562;14.440;2023-12-22T01:45:58;54.45;35.36;80.08;;
37223;Laerm;28026;48.562;14.440;2023-12-22T01:48:31;63.15;36.45;86.96;;
37223;Laerm;28026;48.562;14.440;2023-12-22T01:51:04;63.16;36.45;91.27;;
37223;Laerm;28026;48.562;14.440;2023-12-22T01:53:36;60.47;36.69;81.21;;
37223;Laerm;28026;48.562;14.440;2023-12-22T01:56:07;61.62;36.45;88.37;;
37223;Laerm;28026;48.562;14.440;2023-12-22T01:58:39;56.86;36.45;83.39;;
37223;Laerm;28026;48.562;14.440;2023-12-22T02:01:11;43.58;35.66;67.37;;
37223;Laerm;28026;48.562;14.440;2023-12-22T02:03:42;43.07;36.91;71.13;;
37223;Laerm;28026;48.562;14.440;2023-12-22T02:06:13;39.92;35.01;54.05;;
37223;Laerm;28026;48.562;14.440;2023-12-22T02:08:47;51.49;35.94;80.99;;
37223;Laerm;28026;48.562;14.440;2023-12-22T02:11:18;61.69;36.20;89.23;;
37223;Laerm;28026;48.562;14.440;2023-12-22T02:13:50;65.90;37.32;92.96;;
37223;Laerm;28026;48.562;14.440;2023-12-22T02:16:34;51.45;34.69;80.35;;
37223;Laerm;28026;48.562;14.440;2023-12-22T02:22:11;39.89;34.69;61.78;;
37223;Laerm;28026;48.562;14.440;2023-12-22T02:24:42;39.54;33.90;62.29;;
37223;Laerm;28026;48.562;14.440;2023-12-22T02:33:04;48.42;34.31;74.77;;
37223;Laerm;28026;48.562;14.440;2023-12-22T02:35:40;51.91;33.90;78.48;;
37223;Laerm;28026;48.562;14.440;2023-12-22T02:38:13;48.97;35.04;78.42;;
37223;Laerm;28026;48.562;14.440;2023-12-22T02:40:45;52.60;34.31;81.34;;
37223;Laerm;28026;48.562;14.440;2023-12-22T02:43:16;52.80;35.94;74.89;;
37223;Laerm;28026;48.562;14.440;2023-12-22T02:45:51;53.50;34.69;75.13;;
37223;Laerm;28026;48.562;14.440;2023-12-22T02:48:22;64.15;34.69;94.70;;
37223;Laerm;28026;48.562;14.440;2023-12-22T02:50:53;61.35;35.04;90.29;;
37223;Laerm;28026;48.562;14.440;2023-12-22T02:53:24;54.17;33.90;81.99;;
37223;Laerm;28026;48.562;14.440;2023-12-22T02:55:55;51.28;35.36;80.50;;
37223;Laerm;28026;48.562;14.440;2023-12-22T02:58:26;54.80;36.20;83.53;;
37223;Laerm;28026;48.562;14.440;2023-12-22T03:00:57;43.72;35.36;68.46;;
37223;Laerm;28026;48.562;14.440;2023-12-22T03:03:28;45.47;35.04;72.03;;
37223;Laerm;28026;48.562;14.440;2023-12-22T03:05:59;50.71;36.45;79.03;;
37223;Laerm;28026;48.562;14.440;2023-12-22T03:08:29;44.07;35.04;64.74;;
37223;Laerm;28026;48.562;14.440;2023-12-22T03:11:00;51.98;35.36;81.88;;
37223;Laerm;28026;48.562;14.440;2023-12-22T03:13:31;53.61;34.69;82.82;;
37223;Laerm;28026;48.562;14.440;2023-12-22T03:16:02;52.08;36.69;76.20;;
37223;Laerm;28026;48.562;14.440;2023-12-22T03:18:33;43.02;35.36;62.80;;
37223;Laerm;28026;48.562;14.440;2023-12-22T03:21:04;55.74;34.31;83.14;;
37223;Laerm;28026;48.562;14.440;2023-12-22T03:23:35;51.44;35.94;84.41;;
37223;Laerm;28026;48.562;14.440;2023-12-22T03:26:06;46.73;34.69;71.52;;
37223;Laerm;28026;48.562;14.440;2023-12-22T03:28:37;50.82;35.04;78.63;;
37223;Laerm;28026;48.562;14.440;2023-12-22T03:31:08;52.85;37.32;78.96;;
37223;Laerm;28026;48.562;14.440;2023-12-22T03:33:39;61.26;35.36;89.18;;
37223;Laerm;28026;48.562;14.440;2023-12-22T03:36:11;68.48;36.69;97.45;;
37223;Laerm;28026;48.562;14.440;2023-12-22T03:38:42;58.16;36.91;84.74;;
37223;Laerm;28026;48.562;14.440;2023-12-22T03:41:12;66.63;39.08;89.90;;
37223;Laerm;28026;48.562;14.440;2023-12-22T03:43:43;56.99;37.70;79.95;;
37223;Laerm;28026;48.562;14.440;2023-12-22T03:46:14;58.40;38.05;85.52;;
37223;Laerm;28026;48.562;14.440;2023-12-22T03:48:45;53.63;37.32;81.47;;
37223;Laerm;28026;48.562;14.440;2023-12-22T03:51:17;52.98;37.52;78.31;;
37223;Laerm;28026;48.562;14.440;2023-12-22T03:53:48;67.90;37.88;92.24;;
37223;Laerm;28026;48.562;14.440;2023-12-22T03:56:18;63.89;38.05;89.31;;
37223;Laerm;28026;48.562;14.440;2023-12-22T03:58:49;52.30;37.88;77.69;;
37223;Laerm;28026;48.562;14.440;2023-12-22T04:01:20;64.82;37.32;89.13;;
37223;Laerm;28026;48.562;14.440;2023-12-22T04:03:51;61.23;40.62;89.01;;
37223;Laerm;28026;48.562;14.440;2023-12-22T04:06:22;55.89;41.14;81.83;;
37223;Laerm;28026;48.562;14.440;2023-12-22T04:08:53;51.13;37.52;75.58;;
37223;Laerm;28026;48.562;14.440;2023-12-22T04:11:24;56.82;35.36;83.29;;
37223;Laerm;28026;48.562;14.440;2023-12-22T04:13:54;65.04;38.52;92.06;;
37223;Laerm;28026;48.562;14.440;2023-12-22T04:16:25;56.15;35.94;86.16;;
37223;Laerm;28026;48.562;14.440;2023-12-22T04:18:56;53.07;36.20;79.02;;
37223;Laerm;28026;48.562;14.440;2023-12-22T04:21:27;54.73;35.94;81.33;;
37223;Laerm;28026;48.562;14.440;2023-12-22T04:23:58;50.36;36.69;74.40;;
37223;Laerm;28026;48.562;14.440;2023-12-22T04:26:29;54.66;37.12;79.49;;
37223;Laerm;28026;48.562;14.440;2023-12-22T04:28:59;54.58;36.20;80.45;;
37223;Laerm;28026;48.562;14.440;2023-12-22T04:31:30;48.93;35.31;77.87;;
37223;Laerm;28026;48.562;14.440;2023-12-22T04:34:01;56.64;38.52;83.15;;
37223;Laerm;28026;48.562;14.440;2023-12-22T04:36:32;56.83;36.20;81.11;;
37223;Laerm;28026;48.562;14.440;2023-12-22T04:39:03;53.01;35.36;77.22;;
37223;Laerm;28026;48.562;14.440;2023-12-22T04:41:34;52.60;37.12;81.07;;
37223;Laerm;28026;48.562;14.440;2023-12-22T04:44:04;54.83;40.23;81.13;;
37223;Laerm;28026;48.562;14.440;2023-12-22T04:46:35;58.91;37.12;85.58;;
37223;Laerm;28026;48.562;14.440;2023-12-22T04:49:06;58.98;35.36;88.49;;
37223;Laerm;28026;48.562;14.440;2023-12-22T04:51:37;59.30;34.69;90.54;;
37223;Laerm;28026;48.562;14.440;2023-12-22T04:54:08;56.99;38.81;82.57;;
37223;Laerm;28026;48.562;14.440;2023-12-22T04:56:39;62.42;37.70;89.07;;
37223;Laerm;28026;48.562;14.440;2023-12-22T04:59:09;41.79;35.66;61.96;;
37223;Laerm;28026;48.562;14.440;2023-12-22T05:01:40;47.33;36.20;71.24;;
37223;Laerm;28026;48.562;14.440;2023-12-22T05:04:13;46.86;37.32;70.02;;
37223;Laerm;28026;48.562;14.440;2023-12-22T05:06:44;57.65;37.88;83.80;;
37223;Laerm;28026;48.562;14.440;2023-12-22T05:09:16;53.36;39.08;80.97;;
37223;Laerm;28026;48.562;14.440;2023-12-22T05:11:47;52.25;38.52;77.75;;
37223;Laerm;28026;48.562;14.440;2023-12-22T05:14:18;60.97;37.12;88.24;;
37223;Laerm;28026;48.562;14.440;2023-12-22T05:16:49;53.97;35.36;80.81;;
37223;Laerm;28026;48.562;14.440;2023-12-22T05:19:21;57.13;36.45;82.14;;
37223;Laerm;28026;48.562;14.440;2023-12-22T05:21:52;65.04;38.81;90.94;;
37223;Laerm;28026;48.562;14.440;2023-12-22T05:24:26;56.00;37.12;82.48;;
37223;Laerm;28026;48.562;14.440;2023-12-22T05:26:57;60.94;39.46;89.22;;
37223;Laerm;28026;48.562;14.440;2023-12-22T05:29:28;65.30;37.32;87.11;;
37223;Laerm;28026;48.562;14.440;2023-12-22T05:31:58;46.06;38.02;72.11;;
37223;Laerm;28026;48.562;14.440;2023-12-22T05:34:30;61.58;38.05;84.07;;
37223;Laerm;28026;48.562;14.440;2023-12-22T05:37:01;64.35;40.71;87.21;;
37223;Laerm;28026;48.562;14.440;2023-12-22T05:39:32;61.22;38.67;91.38;;
37223;Laerm;28026;48.562;14.440;2023-12-22T05:42:03;67.07;39.92;92.09;;
37223;Laerm;28026;48.562;14.440;2023-12-22T05:44:34;49.54;40.43;74.36;;
37223;Laerm;28026;48.562;14.440;2023-12-22T05:47:05;49.37;38.95;73.11;;
37223;Laerm;28026;48.562;14.440;2023-12-22T05:49:39;58.62;37.70;80.98;;
37223;Laerm;28026;48.562;14.440;2023-12-22T05:52:12;66.24;37.88;91.23;;
37223;Laerm;28026;48.562;14.440;2023-12-22T05:54:43;64.84;39.81;94.23;;
37223;Laerm;28026;48.562;14.440;2023-12-22T05:57:14;66.17;39.81;89.03;;
37223;Laerm;28026;48.562;14.440;2023-12-22T05:59:44;62.86;39.81;87.22;;
37223;Laerm;28026;48.562;14.440;2023-12-22T06:02:15;65.12;39.34;93.36;;
37223;Laerm;28026;48.562;14.440;2023-12-22T06:04:46;64.23;40.43;87.33;;
37223;Laerm;28026;48.562;14.440;2023-12-22T06:07:17;60.69;38.81;88.54;;
37223;Laerm;28026;48.562;14.440;2023-12-22T06:09:50;61.88;41.75;87.18;;
37223;Laerm;28026;48.562;14.440;2023-12-22T06:12:20;68.51;41.14;95.38;;
37223;Laerm;28026;48.562;14.440;2023-12-22T06:14:51;56.61;38.81;81.35;;
37223;Laerm;28026;48.562;14.440;2023-12-22T06:17:22;57.72;38.95;79.80;;
37223;Laerm;28026;48.562;14.440;2023-12-22T06:19:53;63.51;39.21;86.53;;
37223;Laerm;28026;48.562;14.440;2023-12-22T06:22:24;67.84;40.03;93.18;;
37223;Laerm;28026;48.562;14.440;2023-12-22T06:24:55;60.94;38.95;86.88;;
37223;Laerm;28026;48.562;14.440;2023-12-22T06:27:25;68.64;38.21;95.77;;
37223;Laerm;28026;48.562;14.440;2023-12-22T06:29:56;65.51;38.95;97.37;;
37223;Laerm;28026;48.562;14.440;2023-12-22T06:32:27;56.53;38.81;83.79;;
37223;Laerm;28026;48.562;14.440;2023-12-22T06:34:58;69.55;39.58;94.97;;
37223;Laerm;28026;48.562;14.440;2023-12-22T06:37:31;67.46;40.03;94.30;;
37223;Laerm;28026;48.562;14.440;2023-12-22T06:40:02;63.60;41.82;89.83;;
37223;Laerm;28026;48.562;14.440;2023-12-22T06:42:33;67.70;40.03;94.00;;
37223;Laerm;28026;48.562;14.440;2023-12-22T06:45:05;62.85;37.88;91.95;;
37223;Laerm;28026;48.562;14.440;2023-12-22T06:47:36;61.75;38.37;90.89;;
37223;Laerm;28026;48.562;14.440;2023-12-22T06:50:07;67.15;38.95;95.87;;
37223;Laerm;28026;48.562;14.440;2023-12-22T06:52:38;58.25;38.95;82.37;;
37223;Laerm;28026;48.562;14.440;2023-12-22T06:55:10;71.70;38.52;101.40;;
37223;Laerm;28026;48.562;14.440;2023-12-22T06:57:41;68.55;40.03;95.11;;
37223;Laerm;28026;48.562;14.440;2023-12-22T07:00:12;64.07;39.08;90.98;;
37223;Laerm;28026;48.562;14.440;2023-12-22T07:02:43;56.85;37.70;87.58;;
37223;Laerm;28026;48.562;14.440;2023-12-22T07:07:57;62.96;36.69;91.20;;
37223;Laerm;28026;48.562;14.440;2023-12-22T07:10:28;51.34;39.34;74.35;;
37223;Laerm;28026;48.562;14.440;2023-12-22T07:12:59;62.41;37.52;87.38;;
37223;Laerm;28026;48.562;14.440;2023-12-22T07:15:29;59.91;38.95;88.17;;
37223;Laerm;28026;48.562;14.440;2023-12-22T07:18:00;51.28;38.05;81.90;;
37223;Laerm;28026;48.562;14.440;2023-12-22T07:20:31;65.44;37.88;90.35;;
37223;Laerm;28026;48.562;14.440;2023-12-22T07:23:02;64.70;39.08;89.09;;
37223;Laerm;28026;48.562;14.440;2023-12-22T07:25:37;62.54;39.34;88.90;;
37223;Laerm;28026;48.562;14.440;2023-12-22T07:28:11;54.55;37.88;74.64;;
37223;Laerm;28026;48.562;14.440;2023-12-22T07:30:42;58.87;38.95;85.72;;
37223;Laerm;28026;48.562;14.440;2023-12-22T07:33:13;60.99;39.08;88.13;;
37223;Laerm;28026;48.562;14.440;2023-12-22T07:35:44;63.28;39.58;90.14;;
37223;Laerm;28026;48.562;14.440;2023-12-22T07:38:14;60.06;39.21;88.77;;
37223;Laerm;28026;48.562;14.440;2023-12-22T07:40:45;58.70;39.08;90.08;;
37223;Laerm;28026;48.562;14.440;2023-12-22T07:43:16;55.96;39.21;82.96;;
37223;Laerm;28026;48.562;14.440;2023-12-22T07:45:47;66.06;40.27;90.95;;
37223;Laerm;28026;48.562;14.440;2023-12-22T07:48:18;61.82;39.08;85.63;;
37223;Laerm;28026;48.562;14.440;2023-12-22T07:50:49;70.13;40.62;95.85;;
37223;Laerm;28026;48.562;14.440;2023-12-22T07:53:20;66.16;40.03;90.41;;
37223;Laerm;28026;48.562;14.440;2023-12-22T07:55:51;64.68;41.06;86.57;;
37223;Laerm;28026;48.562;14.440;2023-12-22T07:58:22;68.02;40.89;94.16;;
37223;Laerm;28026;48.562;14.440;2023-12-22T08:00:53;69.77;39.46;92.47;;
37223;Laerm;28026;48.562;14.440;2023-12-22T08:03:24;69.16;39.46;92.58;;
37223;Laerm;28026;48.562;14.440;2023-12-22T08:05:55;74.36;40.03;97.04;;
37223;Laerm;28026;48.562;14.440;2023-12-22T08:08:26;68.07;41.75;94.01;;
37223;Laerm;28026;48.562;14.440;2023-12-22T08:10:57;69.82;39.92;98.16;;
37223;Laerm;28026;48.562;14.440;2023-12-22T08:13:28;66.09;40.98;93.30;;
37223;Laerm;28026;48.562;14.440;2023-12-22T08:15:58;62.70;40.33;91.07;;
37223;Laerm;28026;48.562;14.440;2023-12-22T08:18:29;66.15;41.46;91.23;;
37223;Laerm;28026;48.562;14.440;2023-12-22T08:21:00;66.99;41.14;90.11;;
37223;Laerm;28026;48.562;14.440;2023-12-22T08:23:31;61.46;39.58;91.07;;
37223;Laerm;28026;48.562;14.440;2023-12-22T08:26:02;58.24;39.70;80.80;;
37223;Laerm;28026;48.562;14.440;2023-12-22T08:28:33;66.06;40.13;94.86;;
37223;Laerm;28026;48.562;14.440;2023-12-22T08:31:04;65.21;38.95;93.53;;
37223;Laerm;28026;48.562;14.440;2023-12-22T08:33:34;66.66;40.03;89.93;;
37223;Laerm;28026;48.562;14.440;2023-12-22T08:36:06;72.04;41.30;99.79;;
37223;Laerm;28026;48.562;14.440;2023-12-22T08:38:37;68.04;41.14;92.57;;
37223;Laerm;28026;48.562;14.440;2023-12-22T08:41:11;60.81;41.06;89.58;;
37223;Laerm;28026;48.562;14.440;2023-12-22T08:43:42;70.69;39.08;94.15;;
37223;Laerm;28026;48.562;14.440;2023-12-22T08:46:13;67.05;40.80;92.60;;
37223;Laerm;28026;48.562;14.440;2023-12-22T08:48:44;63.98;39.70;92.62;;
37223;Laerm;28026;48.562;14.440;2023-12-22T08:51:15;67.92;39.21;90.25;;
37223;Laerm;28026;48.562;14.440;2023-12-22T08:53:46;66.07;39.08;88.75;;
37223;Laerm;28026;48.562;14.440;2023-12-22T08:56:17;66.55;37.32;93.80;;
37223;Laerm;28026;48.562;14.440;2023-12-22T08:58:50;56.89;37.70;82.58;;
37223;Laerm;28026;48.562;14.440;2023-12-22T09:01:22;69.16;38.67;94.13;;
37223;Laerm;28026;48.562;14.440;2023-12-22T09:03:53;68.24;38.67;92.62;;
37223;Laerm;28026;48.562;14.440;2023-12-22T09:06:24;71.31;40.03;97.83;;
37223;Laerm;28026;48.562;14.440;2023-12-22T09:08:55;62.49;38.21;87.56;;
37223;Laerm;28026;48.562;14.440;2023-12-22T09:11:26;57.83;38.37;84.49;;
37223;Laerm;28026;48.562;14.440;2023-12-22T09:13:57;57.37;36.69;86.76;;
37223;Laerm;28026;48.562;14.440;2023-12-22T09:16:28;62.20;37.12;94.89;;
37223;Laerm;28026;48.562;14.440;2023-12-22T09:18:59;56.22;37.32;81.52;;
37223;Laerm;28026;48.562;14.440;2023-12-22T09:21:30;53.37;37.53;78.35;;
37223;Laerm;28026;48.562;14.440;2023-12-22T09:24:01;66.10;36.91;96.95;;
37223;Laerm;28026;48.562;14.440;2023-12-22T09:26:32;61.55;36.91;88.70;;
37223;Laerm;28026;48.562;14.440;2023-12-22T09:29:03;48.66;36.45;74.54;;
37223;Laerm;28026;48.562;14.440;2023-12-22T09:31:34;60.16;35.94;93.61;;
37223;Laerm;28026;48.562;14.440;2023-12-22T09:34:05;52.79;36.69;79.60;;
37223;Laerm;28026;48.562;14.440;2023-12-22T09:36:36;43.72;36.20;71.96;;
37223;Laerm;28026;48.562;14.440;2023-12-22T09:39:07;50.21;36.69;76.80;;
37223;Laerm;28026;48.562;14.440;2023-12-22T09:41:39;50.55;35.04;77.22;;
37223;Laerm;28026;48.562;14.440;2023-12-22T09:44:10;51.48;36.69;76.56;;
37223;Laerm;28026;48.562;14.440;2023-12-22T09:46:42;57.40;35.94;87.64;;
37223;Laerm;28026;48.562;14.440;2023-12-22T09:49:18;57.91;36.45;86.33;;
37223;Laerm;28026;48.562;14.440;2023-12-22T09:51:50;59.00;38.21;86.50;;
37223;Laerm;28026;48.562;14.440;2023-12-22T09:54:21;62.94;38.67;92.53;;
37223;Laerm;28026;48.562;14.440;2023-12-22T09:56:54;67.13;39.58;89.90;;
37223;Laerm;28026;48.562;14.440;2023-12-22T09:59:27;67.27;39.46;93.08;;
37223;Laerm;28026;48.562;14.440;2023-12-22T10:02:05;63.86;38.37;86.60;;
37223;Laerm;28026;48.562;14.440;2023-12-22T10:04:37;65.98;41.38;90.16;;
37223;Laerm;28026;48.562;14.440;2023-12-22T10:07:09;68.03;40.71;91.66;;
37223;Laerm;28026;48.562;14.440;2023-12-22T10:09:46;60.69;40.13;88.32;;
37223;Laerm;28026;48.562;14.440;2023-12-22T10:12:19;66.47;39.21;91.93;;
37223;Laerm;28026;48.562;14.440;2023-12-22T10:14:53;60.66;39.08;86.07;;
37223;Laerm;28026;48.562;14.440;2023-12-22T10:17:25;61.81;37.88;90.73;;
37223;Laerm;28026;48.562;14.440;2023-12-22T10:19:56;68.16;40.27;92.30;;
37223;Laerm;28026;48.562;14.440;2023-12-22T10:22:27;70.69;42.88;101.70;;
37223;Laerm;28026;48.562;14.440;2023-12-22T10:24:58;56.36;41.06;83.25;;
37223;Laerm;28026;48.562;14.440;2023-12-22T10:27:29;63.31;40.43;92.36;;
37223;Laerm;28026;48.562;14.440;2023-12-22T10:30:04;74.31;41.75;100.57;;
37223;Laerm;28026;48.562;14.440;2023-12-22T10:32:42;71.95;41.82;95.66;;
37223;Laerm;28026;48.562;14.440;2023-12-22T10:35:13;68.63;42.98;93.03;;
37223;Laerm;28026;48.562;14.440;2023-12-22T10:37:46;76.73;42.71;105.56;;
37223;Laerm;28026;48.562;14.440;2023-12-22T10:40:18;68.50;42.88;91.81;;
37223;Laerm;28026;48.562;14.440;2023-12-22T10:42:50;76.44;43.49;101.79;;
37223;Laerm;28026;48.562;14.440;2023-12-22T10:45:22;71.42;42.03;93.27;;
37223;Laerm;28026;48.562;14.440;2023-12-22T10:47:54;63.25;42.35;88.30;;
37223;Laerm;28026;48.562;14.440;2023-12-22T10:50:25;70.76;40.89;100.58;;
37223;Laerm;28026;48.562;14.440;2023-12-22T10:52:56;74.41;42.22;102.07;;
37223;Laerm;28026;48.562;14.440;2023-12-22T10:55:27;70.13;41.06;93.01;;
37223;Laerm;28026;48.562;14.440;2023-12-22T10:58:03;57.01;41.88;86.82;;
37223;Laerm;28026;48.562;14.440;2023-12-22T11:00:41;76.84;42.93;101.89;;
37223;Laerm;28026;48.562;14.440;2023-12-22T11:03:22;72.18;42.03;97.00;;
37223;Laerm;28026;48.562;14.440;2023-12-22T11:05:57;66.51;42.79;91.84;;
37223;Laerm;28026;48.562;14.440;2023-12-22T11:08:31;70.44;40.98;90.70;;
37223;Laerm;28026;48.562;14.440;2023-12-22T11:11:30;74.93;41.30;100.84;;
37223;Laerm;28026;48.562;14.440;2023-12-22T11:14:04;68.03;40.80;97.40;;
37223;Laerm;28026;48.562;14.440;2023-12-22T11:16:36;71.74;42.03;94.20;;
37223;Laerm;28026;48.562;14.440;2023-12-22T11:19:10;74.13;41.82;97.60;;
37223;Laerm;28026;48.562;14.440;2023-12-22T11:21:44;64.59;41.38;91.94;;
37223;Laerm;28026;48.562;14.440;2023-12-22T11:24:17;67.44;41.46;91.43;;
37223;Laerm;28026;48.562;14.440;2023-12-22T11:26:52;76.77;41.30;104.47;;
37223;Laerm;28026;48.562;14.440;2023-12-22T11:29:26;68.98;40.80;90.35;;
37223;Laerm;28026;48.562;14.440;2023-12-22T11:32:03;67.45;40.33;93.89;;
37223;Laerm;28026;48.562;14.440;2023-12-22T11:34:38;65.96;41.06;90.25;;
37223;Laerm;28026;48.562;14.440;2023-12-22T11:37:15;71.48;41.38;98.94;;
37223;Laerm;28026;48.562;14.440;2023-12-22T11:39:47;61.55;39.70;85.76;;
37223;Laerm;28026;48.562;14.440;2023-12-22T11:42:31;69.29;39.08;95.60;;
37223;Laerm;28026;48.562;14.440;2023-12-22T11:45:05;67.25;38.67;93.45;;
37223;Laerm;28026;48.562;14.440;2023-12-22T11:47:37;66.31;40.53;92.74;;
37223;Laerm;28026;48.562;14.440;2023-12-22T11:50:13;62.33;38.52;88.11;;
37223;Laerm;28026;48.562;14.440;2023-12-22T11:53:25;62.91;39.70;87.97;;
37223;Laerm;28026;48.562;14.440;2023-12-22T11:56:09;68.24;39.92;96.08;;
37223;Laerm;28026;48.562;14.440;2023-12-22T11:58:46;68.93;40.23;92.26;;
37223;Laerm;28026;48.562;14.440;2023-12-22T12:01:26;73.53;39.34;99.02;;
37223;Laerm;28026;48.562;14.440;2023-12-22T12:04:03;55.06;38.81;80.15;;
37223;Laerm;28026;48.562;14.440;2023-12-22T12:06:37;64.73;37.52;91.12;;
37223;Laerm;28026;48.562;14.440;2023-12-22T12:09:10;63.13;39.08;93.79;;
37223;Laerm;28026;48.562;14.440;2023-12-22T12:14:37;65.81;37.88;91.02;;
37223;Laerm;28026;48.562;14.440;2023-12-22T12:17:15;70.01;39.08;96.40;;
37223;Laerm;28026;48.562;14.440;2023-12-22T12:19:48;56.24;38.21;81.43;;
37223;Laerm;28026;48.562;14.440;2023-12-22T12:22:19;64.81;38.67;88.88;;
37223;Laerm;28026;48.562;14.440;2023-12-22T12:24:55;66.97;40.13;95.50;;
37223;Laerm;28026;48.562;14.440;2023-12-22T12:27:26;67.56;39.70;94.37;;
37223;Laerm;28026;48.562;14.440;2023-12-22T12:29:57;63.33;38.67;90.58;;
37223;Laerm;28026;48.562;14.440;2023-12-22T12:32:28;55.65;39.08;84.50;;
37223;Laerm;28026;48.562;14.440;2023-12-22T12:34:59;66.84;40.53;91.02;;
37223;Laerm;28026;48.562;14.440;2023-12-22T12:37:31;63.45;39.21;88.86;;
37223;Laerm;28026;48.562;14.440;2023-12-22T12:40:03;57.75;38.81;89.06;;
37223;Laerm;28026;48.562;14.440;2023-12-22T12:42:39;68.41;39.21;93.78;;
37223;Laerm;28026;48.562;14.440;2023-12-22T12:45:10;64.27;39.58;92.21;;
37223;Laerm;28026;48.562;14.440;2023-12-22T12:47:41;59.57;36.91;87.57;;
37223;Laerm;28026;48.562;14.440;2023-12-22T12:50:11;64.76;37.32;91.59;;
37223;Laerm;28026;48.562;14.440;2023-12-22T12:52:42;48.84;35.94;79.27;;
37223;Laerm;28026;48.562;14.440;2023-12-22T12:55:13;46.53;34.69;69.73;;
37223;Laerm;28026;48.562;14.440;2023-12-22T12:57:44;43.45;37.70;60.78;;
37223;Laerm;28026;48.562;14.440;2023-12-22T13:00:32;42.14;36.20;62.40;;
37223;Laerm;28026;48.562;14.440;2023-12-22T13:03:06;42.58;35.36;65.39;;
37223;Laerm;28026;48.562;14.440;2023-12-22T13:05:37;42.01;34.69;65.13;;
37223;Laerm;28026;48.562;14.440;2023-12-22T13:08:11;46.38;34.31;72.16;;
37223;Laerm;28026;48.562;14.440;2023-12-22T13:10:43;41.23;35.36;58.18;;
37223;Laerm;28026;48.562;14.440;2023-12-22T13:13:14;41.05;35.66;61.83;;
37223;Laerm;28026;48.562;14.440;2023-12-22T13:15:45;44.88;38.81;62.74;;
37223;Laerm;28026;48.562;14.440;2023-12-22T13:18:16;43.04;35.94;57.86;;
37223;Laerm;28026;48.562;14.440;2023-12-22T13:20:47;41.39;35.94;59.66;;
37223;Laerm;28026;48.562;14.440;2023-12-22T13:23:19;42.92;36.45;62.66;;
37223;Laerm;28026;48.562;14.440;2023-12-22T13:25:50;41.49;36.91;45.60;;
37223;Laerm;28026;48.562;14.440;2023-12-22T13:28:28;41.58;37.12;46.38;;
37223;Laerm;28026;48.562;14.440;2023-12-22T13:30:59;42.24;38.05;50.01;;
37223;Laerm;28026;48.562;14.440;2023-12-22T13:33:34;43.73;36.69;60.82;;
37223;Laerm;28026;48.562;14.440;2023-12-22T13:36:06;40.18;33.90;54.92;;
37223;Laerm;28026;48.562;14.440;2023-12-22T13:38:37;40.44;36.10;59.55;;
37223;Laerm;28026;48.562;14.440;2023-12-22T13:41:08;40.54;34.31;60.29;;
37223;Laerm;28026;48.562;14.440;2023-12-22T13:43:39;39.71;34.31;56.68;;
37223;Laerm;28026;48.562;14.440;2023-12-22T13:46:14;41.19;36.20;57.19;;
37223;Laerm;28026;48.562;14.440;2023-12-22T13:48:45;42.63;38.37;59.49;;
37223;Laerm;28026;48.562;14.440;2023-12-22T13:51:16;50.88;37.32;76.87;;
37223;Laerm;28026;48.562;14.440;2023-12-22T13:53:49;41.33;37.12;59.15;;
37223;Laerm;28026;48.562;14.440;2023-12-22T13:56:20;42.45;36.91;57.35;;
37223;Laerm;28026;48.562;14.440;2023-12-22T13:58:51;41.08;35.66;57.64;;
37223;Laerm;28026;48.562;14.440;2023-12-22T14:01:22;41.47;35.36;56.72;;
37223;Laerm;28026;48.562;14.440;2023-12-22T14:03:53;41.58;35.36;55.35;;
37223;Laerm;28026;48.562;14.440;2023-12-22T14:06:26;40.96;35.94;56.27;;
37223;Laerm;28026;48.562;14.440;2023-12-22T14:08:57;45.57;37.88;65.32;;
37223;Laerm;28026;48.562;14.440;2023-12-22T14:11:28;42.88;37.52;57.36;;